weather station
Area: 7197 km2
The highest point: Čupec (819 m.s.l.)
Total stations: 38
Stations online: 36
Stations offline: 2
Current weather
15°C

Meteorological map - weather stations in Jihomoravský

. The meteorological maps show weather information from WARIO weather stations

Weather stations Jihomoravský

 UpdatesNameStatusTemperatureHumidityWind speedWind direction
26.4.2019 00:44Adamov16.1 °C57.9 %7.4 m/s SE
26.4.2019 00:44Boskovice15.9 °C57.8 %0.9 m/s N
26.4.2019 00:44Brno-Líšeň15.9 °C67.3 %1.7 m/s E
26.4.2019 00:44Brno - Vinohrady16.6 °C53.4 %3.2 m/s E
26.4.2019 00:44Brno - Komín13.7 °C73.9 %0.5 m/s W
26.4.2019 00:44Brno-Kníničky14.1 °C72.0 %1.2 m/s NW
26.4.2019 00:44Býkovice7.9 °C84.0 %0.0 m/s W
26.4.2019 00:44Bítov9.6 °C92.9 %0.0 m/s W
26.4.2019 00:44Dobšice13.7 °C66.1 %1.6 m/s S
26.4.2019 00:44Drnholec16.1 °C62.5 %1.9 m/s NE
26.4.2019 00:44Lelekovice16.3 °C65.0 %0.0 m/s N
26.4.2019 00:45Letonice16.0 °C76.4 %0.9 m/s NE
26.4.2019 00:44Hrušovany u Brna14.8 °C65.1 %1.1 m/s N
26.4.2019 00:44Brno16.2 °C66.6 %1.0 m/s NE
26.4.2019 00:44Brno-střed15.9 °C70.9 %0.0 m/s S
20.3.2019 10:27Pasohlávky °C %1.3 m/s S
26.4.2019 00:44Višňové12.0 °C79.6 %0.0 m/s W
26.4.2019 00:44Meteo B16.2 °C65.0 %1.7 m/s NE
26.4.2019 00:44Dolní Dubňany13.8 °C65.2 %1.3 m/s NW
26.4.2019 00:44Bzenec17.4 °C58.6 %0.0 m/s E
26.4.2019 00:44Svatobořice15.8 °C68.6 %0.0 m/s NW
26.4.2019 00:44Moravské Bránice15.6 °C71.8 %1.9 m/s S
26.4.2019 00:44Pohořelice15.6 °C74.8 %1.4 m/s NW
26.4.2019 00:44Brno - Jih14.5 °C64.2 %0.0 m/s SW
26.4.2019 00:44Rousínov15.4 °C71.3 %1.5 m/s SW
26.4.2019 00:44Senorady13.7 °C71.4 %0.0 m/s NE
26.4.2019 00:44Skalice u Znojma15.1 °C67.1 %0.0 m/s SE
26.4.2019 00:45Šlapanice15.3 °C63.9 %0.9 m/s SE
10.3.2019 21:55Kuřim8.4 °C70.0 %5.5 m/s W
26.4.2019 00:44Strážnice18.8 °C55.1 %0.0 m/s E
26.4.2019 00:45Strážnice GUMEX17.7 °C57.9 %0.0 m/s NW
26.4.2019 00:44Valtice14.8 °C59.5 %0.0 m/s NW
26.4.2019 00:44Velatice16.0 °C65.7 %1.6 m/s E
26.4.2019 00:44Veselí nad Moravou17.1 °C58.0 %0.0 m/s E
26.4.2019 00:44Lipov - Vinařství a penzion Kostelanský16.4 °C65.4 %3.5 m/s SE
26.4.2019 00:44Vrbovec12.6 °C67.9 %0.0 m/s NE
26.4.2019 00:44Rájec-Jestřebí14.6 °C66.8 %2.5 m/s E
26.4.2019 00:44Brno - Královo Pole16.3 °C57.6 %1.4 m/s W
Email notifications
Enter your email address to subscribe to notifications about news at warioweather.com. Your email address will not be used for any purpose other than sending these emails and will not be provided to any third party. The subscription can be ended at any time.
All data are only indicative. The portal administrator has no responsibility for potentially incorrect data and related consequences. Publishing or further sharing of content from www.warioweather.com is only allowed with written consent from WANET s.r.o.